createdAt,value
2022-10-28T00:01:13.884Z,30.60
2022-10-28T00:03:43.440Z,36.25
2022-10-28T00:06:19.208Z,32.63
2022-10-28T00:08:46.933Z,27.15
2022-10-28T00:11:26.622Z,21.77
2022-10-28T00:13:55.389Z,23.20
2022-10-28T00:16:26.132Z,29.02
2022-10-28T00:18:54.396Z,38.45
2022-10-28T00:21:27.960Z,31.05
2022-10-28T00:23:55.944Z,28.27
2022-10-28T00:26:25.758Z,31.98
2022-10-28T00:29:07.648Z,26.83
2022-10-28T00:31:36.398Z,33.33
2022-10-28T00:34:07.416Z,25.75
2022-10-28T00:36:37.559Z,23.70
2022-10-28T00:39:19.173Z,24.05
2022-10-28T00:42:07.314Z,24.13
2022-10-28T00:44:53.672Z,28.90
2022-10-28T00:47:40.069Z,32.00
2022-10-28T00:50:13.392Z,23.70
2022-10-28T00:52:42.050Z,25.98
2022-10-28T00:55:10.494Z,24.48
2022-10-28T00:57:39.067Z,24.23
2022-10-28T01:00:08.180Z,29.50
2022-10-28T01:02:43.531Z,24.77
2022-10-28T01:05:13.836Z,24.58
2022-10-28T01:07:41.688Z,20.15
2022-10-28T01:10:10.089Z,20.23
2022-10-28T01:12:53.311Z,26.38
2022-10-28T01:15:55.999Z,23.65
2022-10-28T01:18:29.675Z,23.25
2022-10-28T01:21:15.072Z,20.45
2022-10-28T01:23:54.329Z,20.05
2022-10-28T01:26:56.853Z,21.92
2022-10-28T01:29:30.498Z,21.92
2022-10-28T01:32:31.240Z,27.73
2022-10-28T01:35:28.185Z,22.00
2022-10-28T01:37:55.754Z,16.27
2022-10-28T01:40:36.309Z,17.27
2022-10-28T01:43:13.602Z,21.02
2022-10-28T01:45:56.521Z,18.73
2022-10-28T01:48:46.653Z,24.33
2022-10-28T01:51:22.917Z,19.70
2022-10-28T01:53:53.980Z,25.80
2022-10-28T01:56:26.945Z,24.20
2022-10-28T01:58:59.370Z,24.45
2022-10-28T02:01:29.381Z,17.73
2022-10-28T02:03:59.129Z,25.58
2022-10-28T02:06:29.988Z,20.73
2022-10-28T02:09:19.727Z,24.05
2022-10-28T02:12:13.135Z,19.02
2022-10-28T02:15:04.121Z,23.25
2022-10-28T02:17:56.820Z,23.50
2022-10-28T02:21:03.264Z,22.42
2022-10-28T02:23:44.799Z,17.80
2022-10-28T02:26:40.879Z,36.15
2022-10-28T02:29:15.200Z,19.67
2022-10-28T02:31:49.709Z,18.90
2022-10-28T02:34:21.893Z,25.90
2022-10-28T02:39:26.213Z,23.27
2022-10-28T02:41:59.237Z,23.52
2022-10-28T02:44:42.234Z,26.70
2022-10-28T02:47:14.278Z,24.90
2022-10-28T02:49:45.996Z,27.75
2022-10-28T02:52:16.212Z,18.05
2022-10-28T02:54:53.453Z,20.92
2022-10-28T02:57:25.125Z,26.55
2022-10-28T02:59:58.840Z,18.48
2022-10-28T03:02:26.653Z,22.58
2022-10-28T03:04:54.278Z,25.27
2022-10-28T03:07:21.780Z,22.35
2022-10-28T03:09:49.216Z,25.23
2022-10-28T03:12:19.722Z,18.35
2022-10-28T03:14:48.404Z,30.10
2022-10-28T03:17:16.067Z,18.85
2022-10-28T03:19:43.537Z,16.08
2022-10-28T03:22:11.085Z,18.75
2022-10-28T03:24:38.429Z,20.60
2022-10-28T03:27:06.610Z,22.77
2022-10-28T03:29:34.266Z,17.13
2022-10-28T03:32:01.630Z,20.98
2022-10-28T03:34:29.157Z,19.52
2022-10-28T03:36:56.680Z,23.13
2022-10-28T03:39:23.999Z,29.58
2022-10-28T03:41:51.311Z,21.20
2022-10-28T03:44:18.901Z,19.08
2022-10-28T03:46:46.139Z,19.85
2022-10-28T03:49:13.493Z,23.95
2022-10-28T03:51:40.899Z,22.90
2022-10-28T03:54:08.237Z,24.70
2022-10-28T03:56:35.704Z,23.15
2022-10-28T03:59:03.118Z,22.98
2022-10-28T04:01:30.719Z,22.35
2022-10-28T04:03:58.140Z,28.08
2022-10-28T04:06:25.613Z,29.67
2022-10-28T04:08:52.971Z,25.65
2022-10-28T04:11:20.326Z,37.33
2022-10-28T04:13:47.602Z,28.52
2022-10-28T04:16:15.082Z,22.95
2022-10-28T04:18:42.637Z,28.52
2022-10-28T04:21:09.952Z,21.48
2022-10-28T04:23:37.482Z,24.60
2022-10-28T04:26:06.024Z,25.55
2022-10-28T04:28:33.536Z,23.52
2022-10-28T04:31:02.776Z,16.65
2022-10-28T04:33:30.124Z,21.38
2022-10-28T04:35:57.529Z,25.33
2022-10-28T04:41:00.418Z,30.65
2022-10-28T04:43:27.936Z,29.08
2022-10-28T04:45:55.273Z,30.33
2022-10-28T04:48:22.832Z,22.30
2022-10-28T04:50:51.140Z,24.88
2022-10-28T04:53:18.603Z,23.80
2022-10-28T04:55:47.375Z,32.65
2022-10-28T04:58:14.640Z,25.05
2022-10-28T05:00:42.070Z,28.42
2022-10-28T05:03:09.321Z,21.13
2022-10-28T05:05:36.826Z,22.52
2022-10-28T05:08:04.109Z,33.20
2022-10-28T05:10:32.117Z,23.38
2022-10-28T05:12:59.735Z,31.67
2022-10-28T05:15:27.339Z,16.08
2022-10-28T05:17:55.260Z,20.55
2022-10-28T05:20:31.599Z,26.58
2022-10-28T05:22:59.239Z,23.13
2022-10-28T05:25:28.021Z,22.92
2022-10-28T05:28:00.174Z,22.65
2022-10-28T05:30:28.749Z,20.40
2022-10-28T05:33:01.690Z,18.90
2022-10-28T05:35:30.469Z,21.80
2022-10-28T05:37:57.927Z,25.45
2022-10-28T05:40:25.652Z,27.33
2022-10-28T05:42:53.222Z,28.85
2022-10-28T05:45:21.954Z,32.22
2022-10-28T05:47:49.551Z,23.65
2022-10-28T05:50:19.449Z,19.23
2022-10-28T05:52:51.411Z,19.10
2022-10-28T05:55:19.994Z,26.50
2022-10-28T05:57:49.148Z,22.88
2022-10-28T06:00:18.615Z,26.98
2022-10-28T06:02:46.161Z,29.17
2022-10-28T06:05:15.475Z,30.50
2022-10-28T06:07:43.522Z,35.47
2022-10-28T06:10:12.025Z,26.67
2022-10-28T06:12:38.015Z,25.38
2022-10-28T06:15:05.819Z,31.63
2022-10-28T06:17:33.107Z,27.75
2022-10-28T06:20:03.362Z,24.05
2022-10-28T06:22:33.340Z,24.90
2022-10-28T06:25:01.795Z,38.65
2022-10-28T06:27:28.993Z,24.30
2022-10-28T06:29:56.276Z,24.35
2022-10-28T06:32:23.712Z,24.90
2022-10-28T06:34:51.201Z,25.75
2022-10-28T06:37:18.446Z,29.13
2022-10-28T06:39:49.917Z,31.98
2022-10-28T06:42:18.406Z,30.13
2022-10-28T06:44:46.188Z,31.73
2022-10-28T06:47:14.944Z,23.35
2022-10-28T06:49:42.172Z,28.48
2022-10-28T06:52:09.620Z,31.23
2022-10-28T06:54:36.711Z,33.88
2022-10-28T06:57:04.208Z,30.40
2022-10-28T06:59:31.717Z,28.02
2022-10-28T07:02:01.275Z,42.22
2022-10-28T07:04:28.602Z,41.85
2022-10-28T07:06:56.591Z,34.53
2022-10-28T07:09:24.453Z,37.42
2022-10-28T07:11:54.991Z,25.33
2022-10-28T07:14:22.873Z,34.00
2022-10-28T07:16:50.144Z,32.92
2022-10-28T07:19:21.669Z,31.08
2022-10-28T07:21:49.890Z,28.23
2022-10-28T07:24:17.126Z,29.73
2022-10-28T07:26:48.453Z,31.95
2022-10-28T07:29:16.620Z,31.20
2022-10-28T07:31:44.060Z,25.92
2022-10-28T07:34:11.412Z,33.72
2022-10-28T07:36:40.236Z,35.97
2022-10-28T07:39:07.959Z,39.33
2022-10-28T07:41:37.861Z,33.17
2022-10-28T07:44:05.078Z,37.22
2022-10-28T07:46:32.451Z,32.83
2022-10-28T07:49:00.025Z,35.97
2022-10-28T07:51:27.779Z,36.47
2022-10-28T07:53:57.808Z,31.88
2022-10-28T07:56:26.029Z,37.70
2022-10-28T07:58:53.276Z,30.60
2022-10-28T08:01:22.075Z,32.25
2022-10-28T08:03:51.603Z,35.20
2022-10-28T08:06:20.842Z,29.50
2022-10-28T08:08:53.592Z,34.85
2022-10-28T08:11:24.628Z,33.67
2022-10-28T08:13:53.288Z,33.57
2022-10-28T08:16:21.019Z,43.35
2022-10-28T08:18:48.451Z,27.08
2022-10-28T08:21:16.308Z,28.95
2022-10-28T08:23:47.085Z,34.63
2022-10-28T08:26:16.442Z,30.08
2022-10-28T08:28:44.177Z,34.20
2022-10-28T08:31:13.039Z,33.38
2022-10-28T08:33:44.630Z,30.60
2022-10-28T08:36:21.511Z,28.65
2022-10-28T08:38:48.912Z,32.15
2022-10-28T08:41:33.872Z,31.42
2022-10-28T08:44:22.432Z,27.48
2022-10-28T08:47:08.459Z,32.83
2022-10-28T08:49:42.450Z,31.83
2022-10-28T08:52:34.305Z,31.58
2022-10-28T08:55:04.724Z,28.30
2022-10-28T08:58:02.787Z,29.85
2022-10-28T09:00:32.872Z,29.50
2022-10-28T09:03:12.015Z,27.60
2022-10-28T09:05:41.344Z,22.75
2022-10-28T09:08:25.107Z,15.85
2022-10-28T09:11:29.548Z,12.93
2022-10-28T09:14:27.876Z,32.72
2022-10-28T09:17:20.460Z,18.98
2022-10-28T09:20:04.656Z,13.75
2022-10-28T09:22:43.105Z,15.90
2022-10-28T09:25:37.209Z,15.00
2022-10-28T09:28:19.847Z,13.43
2022-10-28T09:30:48.710Z,10.05
2022-10-28T09:33:38.699Z,12.70
2022-10-28T09:36:15.720Z,15.00
2022-10-28T09:38:44.962Z,12.48
2022-10-28T09:41:25.547Z,16.35
2022-10-28T09:44:20.505Z,11.23
2022-10-28T09:46:53.153Z,10.95
2022-10-28T09:49:26.612Z,10.05
2022-10-28T09:52:19.571Z,12.02
2022-10-28T09:54:53.927Z,17.02
2022-10-28T09:57:24.785Z,10.40
2022-10-28T09:59:53.862Z,9.55
2022-10-28T10:02:30.811Z,14.55
2022-10-28T10:05:06.038Z,14.32
2022-10-28T10:07:41.230Z,10.43
2022-10-28T10:10:27.759Z,11.55
2022-10-28T10:13:03.800Z,9.77
2022-10-28T10:15:48.942Z,15.48
2022-10-28T10:18:23.972Z,11.38
2022-10-28T10:20:58.866Z,10.48
2022-10-28T10:26:14.902Z,8.20
2022-10-28T10:28:44.709Z,10.95
2022-10-28T10:31:25.267Z,9.18
2022-10-28T10:33:56.121Z,12.67
2022-10-28T10:36:29.235Z,9.20
2022-10-28T10:38:59.138Z,7.43
2022-10-28T10:41:44.319Z,11.30
2022-10-28T10:44:20.911Z,10.02
2022-10-28T10:47:12.830Z,8.82
2022-10-28T10:49:43.016Z,8.40
2022-10-28T10:52:20.623Z,8.77
2022-10-28T10:55:05.100Z,11.75
2022-10-28T10:57:34.212Z,15.75
2022-10-28T11:00:01.784Z,9.63
2022-10-28T11:02:35.182Z,11.80
2022-10-28T11:05:06.463Z,9.70
2022-10-28T11:07:34.118Z,11.73
2022-10-28T11:10:02.145Z,13.23
2022-10-28T11:12:35.685Z,12.07
2022-10-28T11:15:17.179Z,9.10
2022-10-28T11:18:05.370Z,6.90
2022-10-28T11:20:47.272Z,10.57
2022-10-28T11:23:34.458Z,11.68
2022-10-28T11:26:08.360Z,8.15
2022-10-28T11:29:11.272Z,6.60
2022-10-28T11:31:52.717Z,12.73
2022-10-28T11:34:49.544Z,9.27
2022-10-28T11:37:54.313Z,11.35
2022-10-28T11:40:32.644Z,8.52
2022-10-28T11:43:21.350Z,13.13
2022-10-28T11:46:10.620Z,11.30
2022-10-28T11:49:00.470Z,6.28
2022-10-28T11:51:53.368Z,9.13
2022-10-28T11:54:33.279Z,11.45
2022-10-28T11:57:08.899Z,9.10
2022-10-28T12:00:03.614Z,8.00
2022-10-28T12:03:04.241Z,7.72
2022-10-28T12:06:03.983Z,12.17
2022-10-28T12:08:54.034Z,13.65
2022-10-28T12:11:50.945Z,10.90
2022-10-28T12:14:23.642Z,11.88
2022-10-28T12:17:13.277Z,14.27
2022-10-28T12:20:01.415Z,12.23
2022-10-28T12:22:51.364Z,12.00
2022-10-28T12:25:41.378Z,11.38
2022-10-28T12:28:20.250Z,12.23
2022-10-28T12:30:52.597Z,10.15
2022-10-28T12:33:27.577Z,10.38
2022-10-28T12:36:08.086Z,14.32
2022-10-28T12:38:53.998Z,11.15
2022-10-28T12:41:43.670Z,12.55
2022-10-28T12:44:25.871Z,10.80
2022-10-28T12:47:17.343Z,10.35
2022-10-28T12:49:55.232Z,9.82
2022-10-28T12:52:36.198Z,13.25
2022-10-28T12:55:42.142Z,9.88
2022-10-28T12:58:17.695Z,8.25
2022-10-28T13:00:50.413Z,14.00
2022-10-28T13:03:18.946Z,13.98
2022-10-28T13:06:17.020Z,9.57
2022-10-28T13:09:03.122Z,10.85
2022-10-28T13:12:02.275Z,14.63
2022-10-28T13:15:15.832Z,10.60
2022-10-28T13:18:08.823Z,8.82
2022-10-28T13:21:22.983Z,10.63
2022-10-28T13:24:31.356Z,10.68
2022-10-28T13:27:05.351Z,12.45
2022-10-28T13:29:36.241Z,10.10
2022-10-28T13:32:09.267Z,11.20
2022-10-28T13:34:43.379Z,27.10
2022-10-28T13:37:24.848Z,17.52
2022-10-28T13:39:57.285Z,16.23
2022-10-28T13:42:26.035Z,12.50
2022-10-28T13:44:54.520Z,13.02
2022-10-28T13:47:25.721Z,16.77
2022-10-28T13:50:12.930Z,8.13
2022-10-28T13:52:49.044Z,9.43
2022-10-28T13:55:42.101Z,11.15
2022-10-28T13:58:24.104Z,14.50
2022-10-28T14:00:53.485Z,17.25
2022-10-28T14:03:29.811Z,15.80
2022-10-28T14:06:01.031Z,10.90
2022-10-28T14:08:34.382Z,12.32
2022-10-28T14:11:12.086Z,15.77
2022-10-28T14:14:04.516Z,18.30
2022-10-28T14:16:39.299Z,13.80
2022-10-28T14:19:09.735Z,13.05
2022-10-28T14:22:06.097Z,13.63
2022-10-28T14:24:42.035Z,17.45
2022-10-28T14:27:09.413Z,14.63
2022-10-28T14:29:45.104Z,14.20
2022-10-28T14:32:31.210Z,17.02
2022-10-28T14:35:26.114Z,14.70
2022-10-28T14:38:27.196Z,10.98
2022-10-28T14:41:03.636Z,14.77
2022-10-28T14:43:33.933Z,11.52
2022-10-28T14:46:26.188Z,11.30
2022-10-28T14:48:59.285Z,9.48
2022-10-28T14:51:42.597Z,10.95
2022-10-28T14:54:16.254Z,10.88
2022-10-28T14:56:44.513Z,11.93
2022-10-28T14:59:36.911Z,12.55
2022-10-28T15:02:10.745Z,23.83
2022-10-28T15:04:40.816Z,14.60
2022-10-28T15:07:16.344Z,14.60
2022-10-28T15:09:45.444Z,10.52
2022-10-28T15:12:17.033Z,17.08
2022-10-28T15:17:19.804Z,16.10
2022-10-28T15:19:49.540Z,17.85
2022-10-28T15:22:23.073Z,12.93
2022-10-28T15:24:55.327Z,30.38
2022-10-28T15:27:23.517Z,19.00
2022-10-28T15:29:51.452Z,19.92
2022-10-28T15:32:21.721Z,20.75
2022-10-28T15:34:49.495Z,17.42
2022-10-28T15:37:22.452Z,15.93
2022-10-28T15:39:52.406Z,54.55
2022-10-28T15:43:01.707Z,30.88
2022-10-28T15:45:31.995Z,21.98
2022-10-28T15:48:00.899Z,19.92
2022-10-28T15:50:31.676Z,15.68
2022-10-28T15:53:11.380Z,14.50
2022-10-28T15:56:06.798Z,92.95
2022-10-28T15:58:35.842Z,47.85
2022-10-28T16:01:03.871Z,47.13
2022-10-28T16:03:43.818Z,44.75
2022-10-28T16:06:39.016Z,23.70
2022-10-28T16:09:44.144Z,62.95
2022-10-28T16:12:17.883Z,29.55
2022-10-28T16:14:55.591Z,16.90
2022-10-28T16:17:29.490Z,16.85
2022-10-28T16:20:03.456Z,39.22
2022-10-28T16:22:34.920Z,24.13
2022-10-28T16:25:02.271Z,14.95
2022-10-28T16:27:32.401Z,21.98
2022-10-28T16:30:00.404Z,20.80
2022-10-28T16:32:49.167Z,21.83
2022-10-28T16:35:18.065Z,14.55
2022-10-28T16:37:49.372Z,21.52
2022-10-28T16:40:51.116Z,15.88
2022-10-28T16:43:06.043Z,19.13
2022-10-28T16:45:33.496Z,18.83
2022-10-28T16:48:00.737Z,15.18
2022-10-28T16:50:28.132Z,18.35
2022-10-28T16:52:56.773Z,26.85
2022-10-28T16:55:24.076Z,20.00
2022-10-28T16:57:51.460Z,19.90
2022-10-28T17:00:19.384Z,15.48
2022-10-28T17:02:50.913Z,24.83
2022-10-28T17:05:24.562Z,19.90
2022-10-28T17:07:56.219Z,17.17
2022-10-28T17:12:51.853Z,24.70
2022-10-28T17:15:19.480Z,21.40
2022-10-28T17:17:50.774Z,21.58
2022-10-28T17:20:19.391Z,35.28
2022-10-28T17:22:46.808Z,29.05
2022-10-28T17:25:14.264Z,24.30
2022-10-28T17:27:42.306Z,23.15
2022-10-28T17:30:10.369Z,25.77
2022-10-28T17:32:37.787Z,23.10
2022-10-28T17:35:05.727Z,21.77
2022-10-28T17:37:33.823Z,24.02
2022-10-28T17:40:01.444Z,29.35
2022-10-28T17:42:29.257Z,68.68
2022-10-28T17:44:58.634Z,29.95
2022-10-28T17:47:25.852Z,24.98
2022-10-28T17:49:53.319Z,271.48
2022-10-28T17:52:21.606Z,64.13
2022-10-28T17:54:48.869Z,453.55
2022-10-28T17:57:16.310Z,161.13
2022-10-28T17:59:43.857Z,136.25
2022-10-28T18:02:15.051Z,226.18
2022-10-28T18:04:42.622Z,92.10
2022-10-28T18:07:10.000Z,85.80
2022-10-28T18:09:37.401Z,242.05
2022-10-28T18:12:06.777Z,77.38
2022-10-28T18:14:34.184Z,109.88
2022-10-28T18:17:01.698Z,54.67
2022-10-28T18:19:29.395Z,38.95
2022-10-28T18:21:56.800Z,70.88
2022-10-28T18:24:26.027Z,308.73
2022-10-28T18:26:55.078Z,962.65
2022-10-28T18:29:22.488Z,338.10
2022-10-28T18:31:49.699Z,168.07
2022-10-28T18:34:17.167Z,77.47
2022-10-28T18:36:44.794Z,171.30
2022-10-28T18:39:12.755Z,92.93
2022-10-28T18:41:42.819Z,117.00
2022-10-28T18:44:13.255Z,250.30
2022-10-28T18:46:41.507Z,314.80
2022-10-28T18:49:08.784Z,579.05
2022-10-28T18:51:36.500Z,193.50
2022-10-28T18:54:05.262Z,71.43
2022-10-28T18:56:34.412Z,271.02
2022-10-28T18:59:04.139Z,283.02
2022-10-28T19:01:32.578Z,54.85
2022-10-28T19:04:02.743Z,67.78
2022-10-28T19:06:33.313Z,306.83
2022-10-28T19:09:03.008Z,284.13
2022-10-28T19:11:31.702Z,439.38
2022-10-28T19:14:00.843Z,413.25
2022-10-28T19:16:30.299Z,63.50
2022-10-28T19:18:59.625Z,380.95
2022-10-28T19:21:28.020Z,140.65
2022-10-28T19:23:55.941Z,152.40
2022-10-28T19:26:23.537Z,100.57
2022-10-28T19:28:52.198Z,96.80
2022-10-28T19:31:21.732Z,223.35
2022-10-28T19:33:49.427Z,385.63
2022-10-28T19:36:21.107Z,143.63
2022-10-28T19:38:49.826Z,402.23
2022-10-28T19:41:19.590Z,405.63
2022-10-28T19:43:48.647Z,290.25
2022-10-28T19:46:20.799Z,187.18
2022-10-28T19:48:50.559Z,150.07
2022-10-28T19:51:23.539Z,636.53
2022-10-28T19:53:53.411Z,503.13
2022-10-28T19:56:21.522Z,211.90
2022-10-28T19:58:53.474Z,332.83
2022-10-28T20:01:23.360Z,226.43
2022-10-28T20:03:52.405Z,54.60
2022-10-28T20:06:21.930Z,83.05
2022-10-28T20:08:50.007Z,70.30
2022-10-28T20:11:26.006Z,117.25
2022-10-28T20:14:13.942Z,163.68
2022-10-28T20:16:43.130Z,155.95
2022-10-28T20:19:11.095Z,248.93
2022-10-28T20:21:39.627Z,223.02
2022-10-28T20:24:08.235Z,84.45
2022-10-28T20:26:37.221Z,60.38
2022-10-28T20:29:06.863Z,69.13
2022-10-28T20:31:42.113Z,85.15
2022-10-28T20:34:09.639Z,99.65
2022-10-28T20:36:44.398Z,39.80
2022-10-28T20:39:17.042Z,67.57
2022-10-28T20:41:46.452Z,57.10
2022-10-28T20:44:13.856Z,164.13
2022-10-28T20:46:41.962Z,82.07
2022-10-28T20:49:10.077Z,101.30
2022-10-28T20:51:37.781Z,64.78
2022-10-28T20:54:05.822Z,208.73
2022-10-28T20:56:36.388Z,287.33
2022-10-28T20:59:03.894Z,257.85
2022-10-28T21:01:39.005Z,500.15
2022-10-28T21:04:11.650Z,138.85
2022-10-28T21:06:39.708Z,300.35
2022-10-28T21:09:08.007Z,88.45
2022-10-28T21:11:35.920Z,59.72
2022-10-28T21:14:03.420Z,68.57
2022-10-28T21:16:31.002Z,98.63
2022-10-28T21:19:01.758Z,90.40
2022-10-28T21:21:30.195Z,162.10
2022-10-28T21:23:57.784Z,54.47
2022-10-28T21:26:26.795Z,294.67
2022-10-28T21:28:54.998Z,264.45
2022-10-28T21:31:22.575Z,106.35
2022-10-28T21:36:22.655Z,85.80
2022-10-28T21:38:56.092Z,28.95
2022-10-28T21:41:24.305Z,119.80
2022-10-28T21:43:53.395Z,133.30
2022-10-28T21:46:23.698Z,45.20
2022-10-28T21:48:52.317Z,34.08
2022-10-28T21:51:19.519Z,25.35
2022-10-28T21:53:46.864Z,44.97
2022-10-28T21:56:19.051Z,27.05
2022-10-28T21:58:48.523Z,24.02
2022-10-28T22:01:24.696Z,21.30
2022-10-28T22:03:54.972Z,19.70
2022-10-28T22:06:25.537Z,18.05
2022-10-28T22:08:54.192Z,18.73
2022-10-28T22:11:24.313Z,77.25
2022-10-28T22:13:59.759Z,103.85
2022-10-28T22:16:29.675Z,74.68
2022-10-28T22:18:59.234Z,33.15
2022-10-28T22:21:30.213Z,24.05
2022-10-28T22:23:57.840Z,30.63
2022-10-28T22:26:28.538Z,27.55
2022-10-28T22:28:56.231Z,20.48
2022-10-28T22:31:28.873Z,30.00
2022-10-28T22:33:57.377Z,40.70
2022-10-28T22:36:26.513Z,24.92
2022-10-28T22:38:54.481Z,25.40
2022-10-28T22:41:22.683Z,31.30
2022-10-28T22:43:52.686Z,33.38
2022-10-28T22:46:20.910Z,28.25
2022-10-28T22:48:48.916Z,21.35
2022-10-28T22:51:16.898Z,22.80
2022-10-28T22:53:44.594Z,19.70
2022-10-28T22:56:15.923Z,17.98
2022-10-28T22:58:43.552Z,18.03
2022-10-28T23:01:17.319Z,23.38
2022-10-28T23:03:47.426Z,16.98
2022-10-28T23:06:17.405Z,18.20
2022-10-28T23:08:45.141Z,29.45
2022-10-28T23:11:14.808Z,17.77
2022-10-28T23:13:45.423Z,21.15
2022-10-28T23:16:15.128Z,19.00
2022-10-28T23:18:43.335Z,59.10
2022-10-28T23:21:24.483Z,29.55
2022-10-28T23:23:56.476Z,19.83
2022-10-28T23:26:24.967Z,21.80
2022-10-28T23:28:54.674Z,21.73
2022-10-28T23:31:23.183Z,56.40
2022-10-28T23:33:51.064Z,23.10
2022-10-28T23:36:18.614Z,20.08
2022-10-28T23:38:46.723Z,16.98
2022-10-28T23:41:18.878Z,17.92
2022-10-28T23:43:47.322Z,13.00
2022-10-28T23:46:14.615Z,15.85
2022-10-28T23:48:42.765Z,15.82
2022-10-28T23:51:09.927Z,12.32
2022-10-28T23:53:37.393Z,19.23
2022-10-28T23:56:05.764Z,11.73
2022-10-28T23:58:33.010Z,14.15
